sensor_id;sensor_type;location;lat;lon;timestamp;temperature;humidity
47520;DHT22;33252;48.122;11.538;2023-09-19T00:02:03;16.90;99.90
47520;DHT22;33252;48.122;11.538;2023-09-19T00:04:32;16.90;99.90
47520;DHT22;33252;48.122;11.538;2023-09-19T00:06:58;17.00;99.90
47520;DHT22;33252;48.122;11.538;2023-09-19T00:09:24;17.00;99.90
47520;DHT22;33252;48.122;11.538;2023-09-19T00:11:53;17.00;99.90
47520;DHT22;33252;48.122;11.538;2023-09-19T00:14:19;17.00;99.90
47520;DHT22;33252;48.122;11.538;2023-09-19T00:16:45;17.00;99.90
47520;DHT22;33252;48.122;11.538;2023-09-19T00:19:11;17.00;99.90
47520;DHT22;33252;48.122;11.538;2023-09-19T00:21:38;17.00;99.90
47520;DHT22;33252;48.122;11.538;2023-09-19T00:24:07;17.00;99.90
47520;DHT22;33252;48.122;11.538;2023-09-19T00:26:34;17.00;99.90
47520;DHT22;33252;48.122;11.538;2023-09-19T00:29:00;17.00;99.90
47520;DHT22;33252;48.122;11.538;2023-09-19T00:31:34;17.00;99.90
47520;DHT22;33252;48.122;11.538;2023-09-19T00:33:59;17.00;99.90
47520;DHT22;33252;48.122;11.538;2023-09-19T00:36:35;17.00;99.90
47520;DHT22;33252;48.122;11.538;2023-09-19T00:39:01;17.00;99.90
47520;DHT22;33252;48.122;11.538;2023-09-19T00:41:28;16.90;99.90
47520;DHT22;33252;48.122;11.538;2023-09-19T00:43:55;16.80;99.90
47520;DHT22;33252;48.122;11.538;2023-09-19T00:46:21;16.70;99.90
47520;DHT22;33252;48.122;11.538;2023-09-19T00:48:47;16.50;99.90
47520;DHT22;33252;48.122;11.538;2023-09-19T00:51:13;16.50;99.90
47520;DHT22;33252;48.122;11.538;2023-09-19T00:53:39;16.50;99.90
47520;DHT22;33252;48.122;11.538;2023-09-19T00:56:11;16.50;99.90
47520;DHT22;33252;48.122;11.538;2023-09-19T00:58:37;16.40;99.90
47520;DHT22;33252;48.122;11.538;2023-09-19T01:01:04;16.40;99.90
47520;DHT22;33252;48.122;11.538;2023-09-19T01:03:33;16.30;99.90
47520;DHT22;33252;48.122;11.538;2023-09-19T01:06:02;16.30;99.90
47520;DHT22;33252;48.122;11.538;2023-09-19T01:08:28;16.30;99.90
47520;DHT22;33252;48.122;11.538;2023-09-19T01:11:09;16.40;99.90
47520;DHT22;33252;48.122;11.538;2023-09-19T01:13:55;16.50;99.90
47520;DHT22;33252;48.122;11.538;2023-09-19T01:17:34;16.60;99.90
47520;DHT22;33252;48.122;11.538;2023-09-19T01:20:03;16.60;99.90
47520;DHT22;33252;48.122;11.538;2023-09-19T01:23:10;16.70;99.90
47520;DHT22;33252;48.122;11.538;2023-09-19T01:31:31;16.60;99.90
47520;DHT22;33252;48.122;11.538;2023-09-19T01:34:02;16.70;99.90
47520;DHT22;33252;48.122;11.538;2023-09-19T01:36:37;16.70;99.90
47520;DHT22;33252;48.122;11.538;2023-09-19T01:39:10;16.70;99.90
47520;DHT22;33252;48.122;11.538;2023-09-19T01:47:26;16.80;99.90
47520;DHT22;33252;48.122;11.538;2023-09-19T01:50:29;16.80;99.90
47520;DHT22;33252;48.122;11.538;2023-09-19T01:52:57;16.90;99.90
47520;DHT22;33252;48.122;11.538;2023-09-19T01:55:28;16.90;99.90
47520;DHT22;33252;48.122;11.538;2023-09-19T01:58:16;16.90;99.90
47520;DHT22;33252;48.122;11.538;2023-09-19T02:00:46;16.90;99.90
47520;DHT22;33252;48.122;11.538;2023-09-19T02:03:13;17.00;99.90
47520;DHT22;33252;48.122;11.538;2023-09-19T02:05:39;17.00;99.90
47520;DHT22;33252;48.122;11.538;2023-09-19T02:08:05;17.00;99.90
47520;DHT22;33252;48.122;11.538;2023-09-19T02:10:31;17.00;99.90
47520;DHT22;33252;48.122;11.538;2023-09-19T02:12:56;17.00;99.90
47520;DHT22;33252;48.122;11.538;2023-09-19T02:15:22;17.00;99.90
47520;DHT22;33252;48.122;11.538;2023-09-19T02:17:48;16.90;99.90
47520;DHT22;33252;48.122;11.538;2023-09-19T02:20:14;16.90;99.90
47520;DHT22;33252;48.122;11.538;2023-09-19T02:22:44;17.00;99.90
47520;DHT22;33252;48.122;11.538;2023-09-19T02:25:10;17.00;99.90
47520;DHT22;33252;48.122;11.538;2023-09-19T02:27:36;16.90;99.90
47520;DHT22;33252;48.122;11.538;2023-09-19T02:30:03;16.90;99.90
47520;DHT22;33252;48.122;11.538;2023-09-19T02:32:29;16.90;99.90
47520;DHT22;33252;48.122;11.538;2023-09-19T02:34:57;16.90;99.90
47520;DHT22;33252;48.122;11.538;2023-09-19T02:37:23;16.80;99.90
47520;DHT22;33252;48.122;11.538;2023-09-19T02:39:49;16.80;99.90
47520;DHT22;33252;48.122;11.538;2023-09-19T02:42:15;16.80;99.90
47520;DHT22;33252;48.122;11.538;2023-09-19T02:44:40;16.80;99.90
47520;DHT22;33252;48.122;11.538;2023-09-19T02:47:06;16.90;99.90
47520;DHT22;33252;48.122;11.538;2023-09-19T02:49:32;16.80;99.90
47520;DHT22;33252;48.122;11.538;2023-09-19T02:51:58;16.70;99.90
47520;DHT22;33252;48.122;11.538;2023-09-19T02:54:26;16.70;99.90
47520;DHT22;33252;48.122;11.538;2023-09-19T02:56:52;16.70;99.90
47520;DHT22;33252;48.122;11.538;2023-09-19T02:59:19;16.70;99.90
47520;DHT22;33252;48.122;11.538;2023-09-19T03:01:45;16.80;99.90
47520;DHT22;33252;48.122;11.538;2023-09-19T03:04:14;16.70;99.90
47520;DHT22;33252;48.122;11.538;2023-09-19T03:06:45;16.70;99.90
47520;DHT22;33252;48.122;11.538;2023-09-19T03:09:12;16.70;99.90
47520;DHT22;33252;48.122;11.538;2023-09-19T03:11:39;16.80;99.90
47520;DHT22;33252;48.122;11.538;2023-09-19T03:14:05;16.70;99.90
47520;DHT22;33252;48.122;11.538;2023-09-19T03:16:31;16.70;99.90
47520;DHT22;33252;48.122;11.538;2023-09-19T03:18:57;16.60;99.90
47520;DHT22;33252;48.122;11.538;2023-09-19T03:21:25;16.50;99.90
47520;DHT22;33252;48.122;11.538;2023-09-19T03:23:51;16.50;99.90
47520;DHT22;33252;48.122;11.538;2023-09-19T03:26:16;16.50;99.90
47520;DHT22;33252;48.122;11.538;2023-09-19T03:28:43;16.50;99.90
47520;DHT22;33252;48.122;11.538;2023-09-19T03:31:09;16.50;99.90
47520;DHT22;33252;48.122;11.538;2023-09-19T03:33:35;16.50;99.90
47520;DHT22;33252;48.122;11.538;2023-09-19T03:36:02;16.50;99.90
47520;DHT22;33252;48.122;11.538;2023-09-19T03:38:31;16.60;99.90
47520;DHT22;33252;48.122;11.538;2023-09-19T03:40:58;16.60;99.90
47520;DHT22;33252;48.122;11.538;2023-09-19T03:43:24;16.60;99.90
47520;DHT22;33252;48.122;11.538;2023-09-19T03:45:50;16.50;99.90
47520;DHT22;33252;48.122;11.538;2023-09-19T03:48:16;16.60;99.90
47520;DHT22;33252;48.122;11.538;2023-09-19T03:50:42;16.50;99.90
47520;DHT22;33252;48.122;11.538;2023-09-19T03:53:09;16.50;99.90
47520;DHT22;33252;48.122;11.538;2023-09-19T03:55:35;16.50;99.90
47520;DHT22;33252;48.122;11.538;2023-09-19T03:58:01;16.60;99.90
47520;DHT22;33252;48.122;11.538;2023-09-19T04:00:27;16.60;99.90
47520;DHT22;33252;48.122;11.538;2023-09-19T04:02:55;16.60;99.90
47520;DHT22;33252;48.122;11.538;2023-09-19T04:05:22;16.60;99.90
47520;DHT22;33252;48.122;11.538;2023-09-19T04:07:48;16.60;99.90
47520;DHT22;33252;48.122;11.538;2023-09-19T04:10:14;16.60;99.90
47520;DHT22;33252;48.122;11.538;2023-09-19T04:12:40;16.60;99.90
47520;DHT22;33252;48.122;11.538;2023-09-19T04:15:06;16.60;99.90
47520;DHT22;33252;48.122;11.538;2023-09-19T04:17:33;16.60;99.90
47520;DHT22;33252;48.122;11.538;2023-09-19T04:19:59;16.60;99.90
47520;DHT22;33252;48.122;11.538;2023-09-19T04:22:25;16.70;99.90
47520;DHT22;33252;48.122;11.538;2023-09-19T04:24:51;16.70;99.90
47520;DHT22;33252;48.122;11.538;2023-09-19T04:27:17;16.70;99.90
47520;DHT22;33252;48.122;11.538;2023-09-19T04:29:44;16.60;99.90
47520;DHT22;33252;48.122;11.538;2023-09-19T04:32:10;16.70;99.90
47520;DHT22;33252;48.122;11.538;2023-09-19T04:34:36;16.70;99.90
47520;DHT22;33252;48.122;11.538;2023-09-19T04:37:02;16.70;99.90
47520;DHT22;33252;48.122;11.538;2023-09-19T04:39:29;16.70;99.90
47520;DHT22;33252;48.122;11.538;2023-09-19T04:41:54;16.60;99.90
47520;DHT22;33252;48.122;11.538;2023-09-19T04:44:20;16.70;99.90
47520;DHT22;33252;48.122;11.538;2023-09-19T04:46:46;16.70;99.90
47520;DHT22;33252;48.122;11.538;2023-09-19T04:49:13;16.70;99.90
47520;DHT22;33252;48.122;11.538;2023-09-19T04:51:39;16.60;99.90
47520;DHT22;33252;48.122;11.538;2023-09-19T04:54:05;16.60;99.90
47520;DHT22;33252;48.122;11.538;2023-09-19T04:56:32;16.60;99.90
47520;DHT22;33252;48.122;11.538;2023-09-19T04:58:58;16.60;99.90
47520;DHT22;33252;48.122;11.538;2023-09-19T05:01:24;16.60;99.90
47520;DHT22;33252;48.122;11.538;2023-09-19T05:03:50;16.60;99.90
47520;DHT22;33252;48.122;11.538;2023-09-19T05:06:22;16.60;99.90
47520;DHT22;33252;48.122;11.538;2023-09-19T05:08:48;16.60;99.90
47520;DHT22;33252;48.122;11.538;2023-09-19T05:11:21;16.50;99.90
47520;DHT22;33252;48.122;11.538;2023-09-19T05:13:48;16.60;99.90
47520;DHT22;33252;48.122;11.538;2023-09-19T05:16:16;16.60;99.90
47520;DHT22;33252;48.122;11.538;2023-09-19T05:18:41;16.60;99.90
47520;DHT22;33252;48.122;11.538;2023-09-19T05:21:07;16.50;99.90
47520;DHT22;33252;48.122;11.538;2023-09-19T05:23:33;16.60;99.90
47520;DHT22;33252;48.122;11.538;2023-09-19T05:25:59;16.60;99.90
47520;DHT22;33252;48.122;11.538;2023-09-19T05:28:25;16.50;99.90
47520;DHT22;33252;48.122;11.538;2023-09-19T05:30:52;16.50;99.90
47520;DHT22;33252;48.122;11.538;2023-09-19T05:33:19;16.60;99.90
47520;DHT22;33252;48.122;11.538;2023-09-19T05:35:45;16.60;99.90
47520;DHT22;33252;48.122;11.538;2023-09-19T05:38:12;16.60;99.90
47520;DHT22;33252;48.122;11.538;2023-09-19T05:40:42;16.50;99.90
47520;DHT22;33252;48.122;11.538;2023-09-19T05:43:08;16.50;99.90
47520;DHT22;33252;48.122;11.538;2023-09-19T05:45:34;16.50;99.90
47520;DHT22;33252;48.122;11.538;2023-09-19T05:48:09;16.50;99.90
47520;DHT22;33252;48.122;11.538;2023-09-19T05:50:35;16.40;99.90
47520;DHT22;33252;48.122;11.538;2023-09-19T05:53:01;16.40;99.90
47520;DHT22;33252;48.122;11.538;2023-09-19T05:55:27;16.40;99.90
47520;DHT22;33252;48.122;11.538;2023-09-19T05:57:54;16.40;99.90
47520;DHT22;33252;48.122;11.538;2023-09-19T06:00:23;16.40;99.90
47520;DHT22;33252;48.122;11.538;2023-09-19T06:02:53;16.50;99.90
47520;DHT22;33252;48.122;11.538;2023-09-19T06:05:20;16.60;99.90
47520;DHT22;33252;48.122;11.538;2023-09-19T06:07:46;16.60;99.90
47520;DHT22;33252;48.122;11.538;2023-09-19T06:10:12;16.60;99.90
47520;DHT22;33252;48.122;11.538;2023-09-19T06:12:42;16.70;99.90
47520;DHT22;33252;48.122;11.538;2023-09-19T06:15:13;16.70;99.90
47520;DHT22;33252;48.122;11.538;2023-09-19T06:17:52;16.80;99.90
47520;DHT22;33252;48.122;11.538;2023-09-19T06:20:20;16.80;99.90
47520;DHT22;33252;48.122;11.538;2023-09-19T06:22:48;16.80;99.90
47520;DHT22;33252;48.122;11.538;2023-09-19T06:25:15;16.80;99.90
47520;DHT22;33252;48.122;11.538;2023-09-19T06:27:52;16.90;99.90
47520;DHT22;33252;48.122;11.538;2023-09-19T06:30:19;16.90;99.90
47520;DHT22;33252;48.122;11.538;2023-09-19T06:32:45;16.90;99.90
47520;DHT22;33252;48.122;11.538;2023-09-19T06:35:13;17.00;99.90
47520;DHT22;33252;48.122;11.538;2023-09-19T06:37:39;17.00;99.90
47520;DHT22;33252;48.122;11.538;2023-09-19T06:40:08;17.00;99.90
47520;DHT22;33252;48.122;11.538;2023-09-19T06:42:46;17.10;99.90
47520;DHT22;33252;48.122;11.538;2023-09-19T06:45:14;17.00;99.90
47520;DHT22;33252;48.122;11.538;2023-09-19T06:47:47;17.00;99.90
47520;DHT22;33252;48.122;11.538;2023-09-19T06:50:17;17.10;99.90
47520;DHT22;33252;48.122;11.538;2023-09-19T06:52:45;17.00;99.90
47520;DHT22;33252;48.122;11.538;2023-09-19T06:55:16;17.00;99.90
47520;DHT22;33252;48.122;11.538;2023-09-19T06:57:42;17.00;99.90
47520;DHT22;33252;48.122;11.538;2023-09-19T07:00:12;17.10;99.90
47520;DHT22;33252;48.122;11.538;2023-09-19T07:03:03;17.20;99.90
47520;DHT22;33252;48.122;11.538;2023-09-19T07:05:31;17.30;99.90
47520;DHT22;33252;48.122;11.538;2023-09-19T07:07:58;17.40;99.90
47520;DHT22;33252;48.122;11.538;2023-09-19T07:10:25;17.40;99.90
47520;DHT22;33252;48.122;11.538;2023-09-19T07:12:58;17.20;99.90
47520;DHT22;33252;48.122;11.538;2023-09-19T07:15:27;17.20;99.90
47520;DHT22;33252;48.122;11.538;2023-09-19T07:17:56;17.30;99.90
47520;DHT22;33252;48.122;11.538;2023-09-19T07:20:23;17.30;99.90
47520;DHT22;33252;48.122;11.538;2023-09-19T07:22:52;17.20;99.90
47520;DHT22;33252;48.122;11.538;2023-09-19T07:25:20;17.20;99.90
47520;DHT22;33252;48.122;11.538;2023-09-19T07:27:46;17.20;99.90
47520;DHT22;33252;48.122;11.538;2023-09-19T07:30:12;17.20;99.90
47520;DHT22;33252;48.122;11.538;2023-09-19T07:32:38;17.30;99.90
47520;DHT22;33252;48.122;11.538;2023-09-19T07:35:06;17.30;99.90
47520;DHT22;33252;48.122;11.538;2023-09-19T07:37:32;17.50;99.90
47520;DHT22;33252;48.122;11.538;2023-09-19T07:40:02;17.60;99.90
47520;DHT22;33252;48.122;11.538;2023-09-19T07:42:36;17.80;99.90
47520;DHT22;33252;48.122;11.538;2023-09-19T07:45:04;17.90;99.90
47520;DHT22;33252;48.122;11.538;2023-09-19T07:47:30;17.80;99.90
47520;DHT22;33252;48.122;11.538;2023-09-19T07:49:58;17.70;99.90
47520;DHT22;33252;48.122;11.538;2023-09-19T07:52:24;17.80;99.90
47520;DHT22;33252;48.122;11.538;2023-09-19T07:54:50;17.90;99.90
47520;DHT22;33252;48.122;11.538;2023-09-19T07:57:16;18.00;99.90
47520;DHT22;33252;48.122;11.538;2023-09-19T07:59:42;18.00;99.90
47520;DHT22;33252;48.122;11.538;2023-09-19T08:02:08;18.00;99.90
47520;DHT22;33252;48.122;11.538;2023-09-19T08:04:42;18.20;99.90
47520;DHT22;33252;48.122;11.538;2023-09-19T08:07:07;18.40;99.90
47520;DHT22;33252;48.122;11.538;2023-09-19T08:09:34;18.50;99.90
47520;DHT22;33252;48.122;11.538;2023-09-19T08:12:00;18.30;99.90
47520;DHT22;33252;48.122;11.538;2023-09-19T08:14:30;18.50;99.90
47520;DHT22;33252;48.122;11.538;2023-09-19T08:16:57;18.40;99.90
47520;DHT22;33252;48.122;11.538;2023-09-19T08:19:24;18.40;99.90
47520;DHT22;33252;48.122;11.538;2023-09-19T08:21:57;18.70;99.90
47520;DHT22;33252;48.122;11.538;2023-09-19T08:24:29;18.50;99.90
47520;DHT22;33252;48.122;11.538;2023-09-19T08:26:56;18.30;99.90
47520;DHT22;33252;48.122;11.538;2023-09-19T08:29:25;18.30;99.90
47520;DHT22;33252;48.122;11.538;2023-09-19T08:31:57;18.20;99.90
47520;DHT22;33252;48.122;11.538;2023-09-19T08:34:24;18.30;99.90
47520;DHT22;33252;48.122;11.538;2023-09-19T08:36:54;18.40;99.90
47520;DHT22;33252;48.122;11.538;2023-09-19T08:39:23;18.60;99.90
47520;DHT22;33252;48.122;11.538;2023-09-19T08:41:49;18.50;99.90
47520;DHT22;33252;48.122;11.538;2023-09-19T08:44:16;18.60;99.90
47520;DHT22;33252;48.122;11.538;2023-09-19T08:46:42;18.80;99.90
47520;DHT22;33252;48.122;11.538;2023-09-19T08:49:16;18.80;99.90
47520;DHT22;33252;48.122;11.538;2023-09-19T08:52:16;18.80;99.90
47520;DHT22;33252;48.122;11.538;2023-09-19T08:54:41;18.80;99.90
47520;DHT22;33252;48.122;11.538;2023-09-19T08:57:08;19.00;99.90
47520;DHT22;33252;48.122;11.538;2023-09-19T08:59:37;19.00;99.80
47520;DHT22;33252;48.122;11.538;2023-09-19T09:02:10;19.50;99.20
47520;DHT22;33252;48.122;11.538;2023-09-19T09:04:40;19.60;98.90
47520;DHT22;33252;48.122;11.538;2023-09-19T09:07:13;19.40;98.40
47520;DHT22;33252;48.122;11.538;2023-09-19T09:09:40;19.20;98.80
47520;DHT22;33252;48.122;11.538;2023-09-19T09:12:13;19.30;98.80
47520;DHT22;33252;48.122;11.538;2023-09-19T09:14:47;19.20;98.30
47520;DHT22;33252;48.122;11.538;2023-09-19T09:17:17;19.20;98.60
47520;DHT22;33252;48.122;11.538;2023-09-19T09:19:48;19.20;98.30
47520;DHT22;33252;48.122;11.538;2023-09-19T09:22:14;19.00;98.40
47520;DHT22;33252;48.122;11.538;2023-09-19T09:24:56;18.90;98.00
47520;DHT22;33252;48.122;11.538;2023-09-19T09:27:29;19.10;98.00
47520;DHT22;33252;48.122;11.538;2023-09-19T09:29:55;19.30;97.40
47520;DHT22;33252;48.122;11.538;2023-09-19T09:32:26;19.30;96.60
47520;DHT22;33252;48.122;11.538;2023-09-19T09:34:55;19.50;96.60
47520;DHT22;33252;48.122;11.538;2023-09-19T09:37:22;19.50;96.60
47520;DHT22;33252;48.122;11.538;2023-09-19T09:39:58;19.60;96.50
47520;DHT22;33252;48.122;11.538;2023-09-19T09:42:36;19.70;96.60
47520;DHT22;33252;48.122;11.538;2023-09-19T09:45:21;20.00;96.10
47520;DHT22;33252;48.122;11.538;2023-09-19T09:48:07;20.20;95.60
47520;DHT22;33252;48.122;11.538;2023-09-19T09:50:47;20.10;95.10
47520;DHT22;33252;48.122;11.538;2023-09-19T09:53:30;20.10;94.60
47520;DHT22;33252;48.122;11.538;2023-09-19T09:56:02;20.10;94.40
47520;DHT22;33252;48.122;11.538;2023-09-19T09:58:34;20.20;94.00
47520;DHT22;33252;48.122;11.538;2023-09-19T10:01:01;20.40;94.20
47520;DHT22;33252;48.122;11.538;2023-09-19T10:03:40;20.40;94.10
47520;DHT22;33252;48.122;11.538;2023-09-19T10:06:11;20.60;94.00
47520;DHT22;33252;48.122;11.538;2023-09-19T10:09:03;20.40;93.60
47520;DHT22;33252;48.122;11.538;2023-09-19T10:11:48;20.40;94.20
47520;DHT22;33252;48.122;11.538;2023-09-19T10:14:28;20.60;94.30
47520;DHT22;33252;48.122;11.538;2023-09-19T10:16:58;20.60;93.80
47520;DHT22;33252;48.122;11.538;2023-09-19T10:19:45;20.30;93.70
47520;DHT22;33252;48.122;11.538;2023-09-19T10:22:13;20.10;93.10
47520;DHT22;33252;48.122;11.538;2023-09-19T10:24:40;20.30;93.50
47520;DHT22;33252;48.122;11.538;2023-09-19T10:27:06;20.30;94.20
47520;DHT22;33252;48.122;11.538;2023-09-19T10:29:39;20.40;94.10
47520;DHT22;33252;48.122;11.538;2023-09-19T10:32:06;20.60;94.30
47520;DHT22;33252;48.122;11.538;2023-09-19T10:34:35;20.40;93.40
47520;DHT22;33252;48.122;11.538;2023-09-19T10:37:02;20.10;94.10
47520;DHT22;33252;48.122;11.538;2023-09-19T10:39:32;20.10;94.60
47520;DHT22;33252;48.122;11.538;2023-09-19T10:42:02;20.30;94.20
47520;DHT22;33252;48.122;11.538;2023-09-19T10:44:32;20.40;94.30
47520;DHT22;33252;48.122;11.538;2023-09-19T10:46:58;20.30;93.90
47520;DHT22;33252;48.122;11.538;2023-09-19T10:49:24;20.30;94.20
47520;DHT22;33252;48.122;11.538;2023-09-19T10:51:56;20.20;94.00
47520;DHT22;33252;48.122;11.538;2023-09-19T10:54:27;20.30;94.70
47520;DHT22;33252;48.122;11.538;2023-09-19T10:56:54;20.30;94.50
47520;DHT22;33252;48.122;11.538;2023-09-19T10:59:24;20.10;94.70
47520;DHT22;33252;48.122;11.538;2023-09-19T11:04:35;20.00;95.10
47520;DHT22;33252;48.122;11.538;2023-09-19T11:09:52;19.90;95.50
47520;DHT22;33252;48.122;11.538;2023-09-19T11:15:09;20.00;95.00
47520;DHT22;33252;48.122;11.538;2023-09-19T11:17:42;20.00;94.10
47520;DHT22;33252;48.122;11.538;2023-09-19T11:30:48;20.10;92.80
47520;DHT22;33252;48.122;11.538;2023-09-19T11:36:11;20.40;91.00
47520;DHT22;33252;48.122;11.538;2023-09-19T11:43:47;20.50;90.10
47520;DHT22;33252;48.122;11.538;2023-09-19T11:46:13;20.70;90.30
47520;DHT22;33252;48.122;11.538;2023-09-19T11:48:43;20.90;90.30
47520;DHT22;33252;48.122;11.538;2023-09-19T11:51:14;21.00;87.30
47520;DHT22;33252;48.122;11.538;2023-09-19T11:53:53;20.90;86.30
47520;DHT22;33252;48.122;11.538;2023-09-19T11:56:21;20.80;88.00
47520;DHT22;33252;48.122;11.538;2023-09-19T11:58:50;20.80;88.90
47520;DHT22;33252;48.122;11.538;2023-09-19T12:01:31;21.00;88.40
47520;DHT22;33252;48.122;11.538;2023-09-19T12:04:00;21.20;88.60
47520;DHT22;33252;48.122;11.538;2023-09-19T12:06:28;21.20;89.00
47520;DHT22;33252;48.122;11.538;2023-09-19T12:08:58;21.30;88.80
47520;DHT22;33252;48.122;11.538;2023-09-19T12:11:30;21.70;88.40
47520;DHT22;33252;48.122;11.538;2023-09-19T12:13:58;21.80;89.50
47520;DHT22;33252;48.122;11.538;2023-09-19T12:16:26;22.00;89.10
47520;DHT22;33252;48.122;11.538;2023-09-19T12:18:56;22.00;88.20
47520;DHT22;33252;48.122;11.538;2023-09-19T12:21:31;21.70;88.10
47520;DHT22;33252;48.122;11.538;2023-09-19T12:24:14;22.30;87.90
47520;DHT22;33252;48.122;11.538;2023-09-19T12:26:43;23.10;85.20
47520;DHT22;33252;48.122;11.538;2023-09-19T12:29:18;24.20;82.30
47520;DHT22;33252;48.122;11.538;2023-09-19T12:31:54;24.80;80.80
47520;DHT22;33252;48.122;11.538;2023-09-19T12:34:27;24.20;79.90
47520;DHT22;33252;48.122;11.538;2023-09-19T12:37:10;24.40;79.60
47520;DHT22;33252;48.122;11.538;2023-09-19T12:39:51;24.50;77.90
47520;DHT22;33252;48.122;11.538;2023-09-19T12:42:24;24.90;78.30
47520;DHT22;33252;48.122;11.538;2023-09-19T12:44:55;25.00;76.00
47520;DHT22;33252;48.122;11.538;2023-09-19T12:47:23;25.50;76.90
47520;DHT22;33252;48.122;11.538;2023-09-19T12:52:39;25.20;78.40
47520;DHT22;33252;48.122;11.538;2023-09-19T12:55:05;26.10;76.90
47520;DHT22;33252;48.122;11.538;2023-09-19T12:57:36;26.30;74.40
47520;DHT22;33252;48.122;11.538;2023-09-19T13:00:03;27.30;73.80
47520;DHT22;33252;48.122;11.538;2023-09-19T13:02:31;26.70;74.50
47520;DHT22;33252;48.122;11.538;2023-09-19T13:04:58;27.80;71.10
47520;DHT22;33252;48.122;11.538;2023-09-19T13:07:40;28.50;71.40
47520;DHT22;33252;48.122;11.538;2023-09-19T13:10:09;29.90;70.10
47520;DHT22;33252;48.122;11.538;2023-09-19T13:12:37;29.60;67.90
47520;DHT22;33252;48.122;11.538;2023-09-19T13:15:10;28.90;69.00
47520;DHT22;33252;48.122;11.538;2023-09-19T13:17:49;29.30;68.60
47520;DHT22;33252;48.122;11.538;2023-09-19T13:20:26;27.40;68.20
47520;DHT22;33252;48.122;11.538;2023-09-19T13:22:55;27.00;69.60
47520;DHT22;33252;48.122;11.538;2023-09-19T13:25:25;26.60;70.90
47520;DHT22;33252;48.122;11.538;2023-09-19T13:27:55;28.00;71.30
47520;DHT22;33252;48.122;11.538;2023-09-19T13:30:23;27.00;70.50
47520;DHT22;33252;48.122;11.538;2023-09-19T13:32:50;28.40;72.50
47520;DHT22;33252;48.122;11.538;2023-09-19T13:35:17;27.20;72.40
47520;DHT22;33252;48.122;11.538;2023-09-19T13:37:43;26.40;76.00
47520;DHT22;33252;48.122;11.538;2023-09-19T13:40:12;27.20;73.10
47520;DHT22;33252;48.122;11.538;2023-09-19T13:42:39;28.10;71.40
47520;DHT22;33252;48.122;11.538;2023-09-19T13:45:05;27.90;68.90
47520;DHT22;33252;48.122;11.538;2023-09-19T13:47:32;28.70;67.10
47520;DHT22;33252;48.122;11.538;2023-09-19T13:49:58;28.50;65.90
47520;DHT22;33252;48.122;11.538;2023-09-19T13:52:24;27.10;68.00
47520;DHT22;33252;48.122;11.538;2023-09-19T13:54:53;28.70;66.80
47520;DHT22;33252;48.122;11.538;2023-09-19T13:57:22;27.00;67.00
47520;DHT22;33252;48.122;11.538;2023-09-19T13:59:48;27.30;67.00
47520;DHT22;33252;48.122;11.538;2023-09-19T14:02:13;26.90;68.10
47520;DHT22;33252;48.122;11.538;2023-09-19T14:04:39;26.20;69.00
47520;DHT22;33252;48.122;11.538;2023-09-19T14:07:06;26.40;70.40
47520;DHT22;33252;48.122;11.538;2023-09-19T14:09:32;27.20;68.80
47520;DHT22;33252;48.122;11.538;2023-09-19T14:11:59;27.70;67.70
47520;DHT22;33252;48.122;11.538;2023-09-19T14:14:24;28.10;67.20
47520;DHT22;33252;48.122;11.538;2023-09-19T14:16:50;28.40;66.40
47520;DHT22;33252;48.122;11.538;2023-09-19T14:19:18;27.80;68.40
47520;DHT22;33252;48.122;11.538;2023-09-19T14:21:44;28.40;67.30
47520;DHT22;33252;48.122;11.538;2023-09-19T14:24:09;26.80;69.10
47520;DHT22;33252;48.122;11.538;2023-09-19T14:26:38;27.10;68.50
47520;DHT22;33252;48.122;11.538;2023-09-19T14:29:04;27.50;67.90
47520;DHT22;33252;48.122;11.538;2023-09-19T14:31:33;28.20;66.70
47520;DHT22;33252;48.122;11.538;2023-09-19T14:33:59;26.00;69.70
47520;DHT22;33252;48.122;11.538;2023-09-19T14:36:25;26.70;68.70
47520;DHT22;33252;48.122;11.538;2023-09-19T14:38:55;27.40;68.00
47520;DHT22;33252;48.122;11.538;2023-09-19T14:41:21;27.80;67.10
47520;DHT22;33252;48.122;11.538;2023-09-19T14:43:48;28.20;66.80
47520;DHT22;33252;48.122;11.538;2023-09-19T14:46:14;27.50;65.90
47520;DHT22;33252;48.122;11.538;2023-09-19T14:48:40;26.40;68.50
47520;DHT22;33252;48.122;11.538;2023-09-19T14:51:07;27.40;68.00
47520;DHT22;33252;48.122;11.538;2023-09-19T14:53:37;28.10;66.80
47520;DHT22;33252;48.122;11.538;2023-09-19T14:56:04;27.30;66.60
47520;DHT22;33252;48.122;11.538;2023-09-19T14:58:31;27.80;67.40
47520;DHT22;33252;48.122;11.538;2023-09-19T15:01:07;26.60;69.40
47520;DHT22;33252;48.122;11.538;2023-09-19T15:03:34;26.10;70.30
47520;DHT22;33252;48.122;11.538;2023-09-19T15:06:04;26.70;69.70
47520;DHT22;33252;48.122;11.538;2023-09-19T15:08:31;27.30;68.80
47520;DHT22;33252;48.122;11.538;2023-09-19T15:10:57;27.10;66.90
47520;DHT22;33252;48.122;11.538;2023-09-19T15:13:24;27.20;67.50
47520;DHT22;33252;48.122;11.538;2023-09-19T15:15:59;25.50;70.50
47520;DHT22;33252;48.122;11.538;2023-09-19T15:18:25;26.70;69.60
47520;DHT22;33252;48.122;11.538;2023-09-19T15:20:50;27.20;68.30
47520;DHT22;33252;48.122;11.538;2023-09-19T15:23:16;26.50;68.90
47520;DHT22;33252;48.122;11.538;2023-09-19T15:25:53;26.30;68.50
47520;DHT22;33252;48.122;11.538;2023-09-19T15:28:19;26.60;69.00
47520;DHT22;33252;48.122;11.538;2023-09-19T15:30:50;26.10;69.50
47520;DHT22;33252;48.122;11.538;2023-09-19T15:33:22;26.40;69.20
47520;DHT22;33252;48.122;11.538;2023-09-19T15:35:47;25.60;70.70
47520;DHT22;33252;48.122;11.538;2023-09-19T15:38:14;25.30;72.00
47520;DHT22;33252;48.122;11.538;2023-09-19T15:40:46;25.90;70.60
47520;DHT22;33252;48.122;11.538;2023-09-19T15:43:12;26.10;70.80
47520;DHT22;33252;48.122;11.538;2023-09-19T15:45:38;25.80;71.80
47520;DHT22;33252;48.122;11.538;2023-09-19T15:48:04;25.90;70.90
47520;DHT22;33252;48.122;11.538;2023-09-19T15:50:30;24.80;71.30
47520;DHT22;33252;48.122;11.538;2023-09-19T15:52:56;24.30;74.20
47520;DHT22;33252;48.122;11.538;2023-09-19T15:55:21;23.60;74.80
47520;DHT22;33252;48.122;11.538;2023-09-19T15:57:47;23.50;74.90
47520;DHT22;33252;48.122;11.538;2023-09-19T16:00:13;23.50;75.60
47520;DHT22;33252;48.122;11.538;2023-09-19T16:02:42;23.30;75.30
47520;DHT22;33252;48.122;11.538;2023-09-19T16:05:10;22.90;76.10
47520;DHT22;33252;48.122;11.538;2023-09-19T16:07:37;22.60;76.90
47520;DHT22;33252;48.122;11.538;2023-09-19T16:10:04;22.20;77.10